메인 페이지
METAR-TAF:

METAR-TAF

공항 :

리싱가, 모잠비크

위도: 13-18S, 경도: 035-14E, 고도: 1364m

METAR: 누락

시각: 12:11 (10:11 UTC)

예보

예보는 6 시간 11분 전, 04:00시(UTC)에 발표되었습니다.
예보 대상 시간: 12일 06시부터 13일 06시까지 (UTC)
북북서6kt
시정 10km 이상
고도 1500ft 상공 구름 많음
고도 2500ft 상공 구름 조금, 적란운.
확률 30% :
일시적
12일 06시부터 12일 11시까지 (UTC)
시정: 5000m
고도 2000ft 상공 구름 조금, 적란운.
뇌우, 약한비
전환 중
12일 18시부터 12일 20시까지 (UTC)
여러 방향의 바람 2kt

TAF: FQLC 120400Z 1206/1306 34006KT 9999 BKN015 FEW025CB TX27/1213Z TN19/1303Z PROB30 TEMPO 1206/1211 5000 -TSRA FEW020CB BECMG 1218/1220 VRB02KT

4,000개 이상의 공항 관측 자료 및 예보 (METAR 및 TAF 보고).

지도상에서 검색 가능한 기상관측소가 노란 점과 빨간 점으로 표시되어 있습니다.

기상관측소 명을 보려면 표시 위로 마우스를 이동하세요.

날씨 관측과 예보를 보려면 클릭하세요.

지도 변경 : 확대하려면 엑스 표시가 있는 녹색 버튼, 축소하려면 빼기 표시가 있는 녹색 버튼, 다음 페이지의 지도를 보려면 녹색 화살표를 클릭하세요.


METAR-TAF: